createdAt,value
2018-05-12T00:01:35.263Z,5.87
2018-05-12T00:04:02.843Z,5.33
2018-05-12T00:06:30.450Z,6.60
2018-05-12T00:08:58.007Z,7.30
2018-05-12T00:11:25.585Z,6.93
2018-05-12T00:13:53.151Z,7.80
2018-05-12T00:16:20.744Z,7.83
2018-05-12T00:18:48.315Z,8.60
2018-05-12T00:21:16.325Z,7.37
2018-05-12T00:23:43.971Z,7.07
2018-05-12T00:26:11.533Z,6.00
2018-05-12T00:28:39.135Z,6.83
2018-05-12T00:31:06.717Z,7.00
2018-05-12T00:33:34.279Z,5.50
2018-05-12T00:36:01.884Z,5.30
2018-05-12T00:38:29.462Z,6.43
2018-05-12T00:40:57.087Z,7.13
2018-05-12T00:43:24.648Z,7.40
2018-05-12T00:45:52.212Z,7.70
2018-05-12T00:48:19.794Z,7.00
2018-05-12T00:50:47.345Z,5.60
2018-05-12T00:53:14.943Z,6.70
2018-05-12T00:55:42.513Z,5.13
2018-05-12T00:58:10.128Z,6.70
2018-05-12T01:00:37.703Z,6.20
2018-05-12T01:03:05.268Z,6.10
2018-05-12T01:05:32.866Z,6.20
2018-05-12T01:08:00.415Z,5.10
2018-05-12T01:10:28.037Z,5.60
2018-05-12T01:12:55.592Z,6.20
2018-05-12T01:15:23.215Z,7.67
2018-05-12T01:17:50.771Z,6.10
2018-05-12T01:20:18.323Z,5.90
2018-05-12T01:22:45.891Z,6.27
2018-05-12T01:25:13.450Z,7.53
2018-05-12T01:27:41.041Z,9.27
2018-05-12T01:30:08.599Z,9.73
2018-05-12T01:32:36.265Z,8.50
2018-05-12T01:35:03.835Z,9.43
2018-05-12T01:37:31.396Z,10.03
2018-05-12T01:39:58.961Z,8.73
2018-05-12T01:42:26.551Z,10.70
2018-05-12T01:44:54.151Z,8.60
2018-05-12T01:47:21.699Z,6.50
2018-05-12T01:49:49.349Z,7.50
2018-05-12T01:52:16.906Z,6.30
2018-05-12T01:54:44.488Z,7.27
2018-05-12T01:57:12.068Z,7.03
2018-05-12T01:59:39.627Z,7.07
2018-05-12T02:02:07.220Z,7.17
2018-05-12T02:04:34.799Z,6.50
2018-05-12T02:07:02.448Z,7.77
2018-05-12T02:09:30.017Z,6.70
2018-05-12T02:11:57.625Z,6.23
2018-05-12T02:14:25.205Z,6.23
2018-05-12T02:16:52.764Z,5.37
2018-05-12T02:19:20.327Z,7.20
2018-05-12T02:21:47.921Z,5.90
2018-05-12T02:24:15.595Z,5.60
2018-05-12T02:26:43.150Z,6.50
2018-05-12T02:29:10.731Z,6.00
2018-05-12T02:31:38.299Z,5.33
2018-05-12T02:34:05.863Z,6.43
2018-05-12T02:36:33.434Z,7.50
2018-05-12T02:39:00.995Z,7.43
2018-05-12T02:41:28.618Z,6.93
2018-05-12T02:43:56.227Z,6.43
2018-05-12T02:46:23.808Z,5.93
2018-05-12T02:48:51.395Z,6.47
2018-05-12T02:51:19.029Z,6.10
2018-05-12T02:53:46.664Z,6.07
2018-05-12T02:56:14.247Z,6.10
2018-05-12T02:58:41.813Z,6.73
2018-05-12T03:01:09.379Z,6.10
2018-05-12T03:03:36.931Z,6.03
2018-05-12T03:06:04.560Z,6.77
2018-05-12T03:08:32.125Z,8.13
2018-05-12T03:10:59.713Z,7.53
2018-05-12T03:13:27.312Z,7.60
2018-05-12T03:15:54.867Z,8.10
2018-05-12T03:18:22.460Z,9.30
2018-05-12T03:20:50.020Z,7.87
2018-05-12T03:23:17.646Z,9.80
2018-05-12T03:25:45.200Z,7.47
2018-05-12T03:28:12.765Z,6.80
2018-05-12T03:30:40.335Z,6.97
2018-05-12T03:33:07.911Z,6.27
2018-05-12T03:35:35.550Z,8.60
2018-05-12T03:38:03.115Z,6.90
2018-05-12T03:40:30.669Z,7.10
2018-05-12T03:42:58.240Z,6.60
2018-05-12T03:45:25.809Z,6.33
2018-05-12T03:47:53.396Z,6.97
2018-05-12T03:50:20.976Z,7.30
2018-05-12T03:52:48.527Z,7.40
2018-05-12T03:55:16.100Z,8.70
2018-05-12T03:57:43.685Z,7.80
2018-05-12T04:00:11.255Z,8.73
2018-05-12T04:02:38.808Z,8.70
2018-05-12T04:05:18.124Z,7.70
2018-05-12T04:07:57.483Z,8.53
2018-05-12T04:10:43.545Z,9.30
2018-05-12T04:13:11.127Z,9.57
2018-05-12T04:15:38.706Z,9.03
2018-05-12T04:18:06.271Z,9.10
2018-05-12T04:20:33.855Z,9.37
2018-05-12T04:23:01.428Z,8.77
2018-05-12T04:25:29.002Z,8.97
2018-05-12T04:27:56.555Z,8.43
2018-05-12T04:30:24.150Z,8.80
2018-05-12T04:32:51.717Z,7.60
2018-05-12T04:35:19.315Z,11.20
2018-05-12T04:37:46.882Z,8.90
2018-05-12T04:40:14.499Z,7.73
2018-05-12T04:42:42.055Z,7.87
2018-05-12T04:45:09.613Z,7.90
2018-05-12T04:47:37.189Z,6.60
2018-05-12T04:50:04.779Z,7.83
2018-05-12T04:52:32.348Z,8.57
2018-05-12T04:54:59.899Z,8.50
2018-05-12T04:57:27.521Z,8.00
2018-05-12T04:59:55.076Z,5.00
2018-05-12T05:02:22.659Z,4.27
2018-05-12T05:04:50.245Z,5.20
2018-05-12T05:07:17.799Z,4.73
2018-05-12T05:09:45.368Z,3.50
2018-05-12T05:12:12.905Z,3.00
2018-05-12T05:14:40.562Z,3.10
2018-05-12T05:17:08.115Z,3.50
2018-05-12T05:19:35.701Z,3.63
2018-05-12T05:22:03.302Z,3.00
2018-05-12T05:24:30.836Z,3.23
2018-05-12T05:26:58.405Z,3.77
2018-05-12T05:29:26.003Z,3.10
2018-05-12T05:31:53.625Z,2.73
2018-05-12T05:34:21.188Z,3.13
2018-05-12T05:36:48.760Z,2.67
2018-05-12T05:39:16.328Z,3.00
2018-05-12T05:41:44.003Z,2.40
2018-05-12T05:44:11.590Z,3.50
2018-05-12T05:46:39.189Z,2.83
2018-05-12T05:49:06.812Z,3.90
2018-05-12T05:51:34.387Z,4.17
2018-05-12T05:54:02.026Z,3.70
2018-05-12T05:56:29.600Z,3.20
2018-05-12T05:58:57.165Z,3.90
2018-05-12T06:01:24.755Z,5.73
2018-05-12T06:03:52.320Z,3.87
2018-05-12T06:06:19.931Z,4.80
2018-05-12T06:08:47.518Z,5.00
2018-05-12T06:11:15.094Z,4.40
2018-05-12T06:13:42.697Z,3.27
2018-05-12T06:16:10.280Z,3.43
2018-05-12T06:18:37.835Z,3.83
2018-05-12T06:21:05.397Z,3.60
2018-05-12T06:23:33.040Z,4.27
2018-05-12T06:26:00.666Z,3.80
2018-05-12T06:28:28.237Z,3.37
2018-05-12T06:30:55.834Z,2.90
2018-05-12T06:33:23.402Z,3.23
2018-05-12T06:35:50.973Z,4.07
2018-05-12T06:38:18.537Z,2.97
2018-05-12T06:40:46.947Z,3.20
2018-05-12T06:43:14.528Z,3.20
2018-05-12T06:45:42.068Z,2.73
2018-05-12T06:48:09.664Z,3.00
2018-05-12T06:50:37.215Z,3.27
2018-05-12T06:53:04.771Z,3.70
2018-05-12T06:55:32.329Z,4.03
2018-05-12T06:57:59.945Z,3.70
2018-05-12T07:00:27.501Z,2.90
2018-05-12T07:02:55.057Z,4.27
2018-05-12T07:05:22.644Z,4.00
2018-05-12T07:07:50.200Z,3.40
2018-05-12T07:10:17.773Z,7.63
2018-05-12T07:12:45.333Z,5.93
2018-05-12T07:15:13.022Z,4.23
2018-05-12T07:17:40.697Z,3.60
2018-05-12T07:20:08.261Z,3.80
2018-05-12T07:22:35.828Z,3.80
2018-05-12T07:25:03.389Z,3.90
2018-05-12T07:27:30.964Z,4.03
2018-05-12T07:29:58.533Z,3.97
2018-05-12T07:32:26.314Z,3.20
2018-05-12T07:34:53.931Z,3.50
2018-05-12T07:37:21.496Z,3.23
2018-05-12T07:39:49.066Z,2.80
2018-05-12T07:42:16.693Z,3.07
2018-05-12T07:44:44.255Z,2.40
2018-05-12T07:47:11.877Z,2.10
2018-05-12T07:49:39.488Z,1.90
2018-05-12T07:52:07.044Z,1.40
2018-05-12T07:54:34.674Z,2.27
2018-05-12T07:57:02.348Z,2.33
2018-05-12T07:59:29.913Z,1.97
2018-05-12T08:01:57.541Z,2.63
2018-05-12T08:04:25.161Z,1.93
2018-05-12T08:06:52.786Z,1.97
2018-05-12T08:09:20.361Z,3.80
2018-05-12T08:11:47.998Z,6.93
2018-05-12T08:14:15.684Z,3.63
2018-05-12T08:16:43.308Z,3.07
2018-05-12T08:19:10.872Z,2.13
2018-05-12T08:21:38.478Z,1.90
2018-05-12T08:24:06.133Z,2.20
2018-05-12T08:26:33.763Z,2.50
2018-05-12T08:29:01.401Z,2.00
2018-05-12T08:31:28.982Z,2.30
2018-05-12T08:33:56.552Z,2.20
2018-05-12T08:36:24.098Z,2.50
2018-05-12T08:38:51.664Z,2.57
2018-05-12T08:41:19.286Z,5.10
2018-05-12T08:43:47.033Z,3.60
2018-05-12T08:46:14.657Z,2.53
2018-05-12T08:48:42.230Z,2.67
2018-05-12T08:51:09.804Z,1.83
2018-05-12T08:53:37.369Z,2.10
2018-05-12T08:56:04.932Z,2.87
2018-05-12T08:58:32.493Z,6.40
2018-05-12T09:01:00.177Z,7.50
2018-05-12T09:03:27.729Z,6.07
2018-05-12T09:05:55.285Z,2.90
2018-05-12T09:08:22.856Z,2.60
2018-05-12T09:10:50.417Z,2.03
2018-05-12T09:13:17.988Z,2.03
2018-05-12T09:15:45.613Z,2.50
2018-05-12T09:18:13.216Z,1.67
2018-05-12T09:20:40.843Z,2.03
2018-05-12T09:23:08.405Z,2.03
2018-05-12T09:25:35.998Z,2.10
2018-05-12T09:28:03.629Z,1.70
2018-05-12T09:30:31.199Z,2.30
2018-05-12T09:32:58.813Z,2.30
2018-05-12T09:35:26.420Z,1.73
2018-05-12T09:37:53.976Z,1.87
2018-05-12T09:40:21.590Z,2.80
2018-05-12T09:42:49.221Z,2.30
2018-05-12T09:45:17.628Z,2.10
2018-05-12T09:47:45.260Z,2.10
2018-05-12T09:50:12.829Z,2.17
2018-05-12T09:52:40.449Z,2.20
2018-05-12T09:55:08.005Z,1.67
2018-05-12T09:57:35.552Z,2.20
2018-05-12T10:00:03.176Z,1.60
2018-05-12T10:02:30.732Z,1.80
2018-05-12T10:04:58.444Z,1.87
2018-05-12T10:07:26.066Z,2.00
2018-05-12T10:09:53.676Z,2.30
2018-05-12T10:12:21.221Z,1.70
2018-05-12T10:14:48.882Z,2.03
2018-05-12T10:17:16.457Z,3.30
2018-05-12T10:19:44.073Z,2.50
2018-05-12T10:22:11.685Z,1.80
2018-05-12T10:24:39.538Z,1.80
2018-05-12T10:27:07.349Z,2.13
2018-05-12T10:29:35.180Z,2.40
2018-05-12T10:32:03.006Z,3.03
2018-05-12T10:34:30.838Z,1.70
2018-05-12T10:36:58.657Z,2.10
2018-05-12T10:39:26.471Z,2.40
2018-05-12T10:41:54.295Z,2.03
2018-05-12T10:44:22.191Z,2.30
2018-05-12T10:46:50.579Z,2.33
2018-05-12T10:49:18.401Z,2.50
2018-05-12T10:51:46.212Z,2.53
2018-05-12T10:54:13.976Z,2.13
2018-05-12T10:56:41.555Z,1.80
2018-05-12T10:59:09.150Z,2.00
2018-05-12T11:01:36.727Z,2.10
2018-05-12T11:04:04.336Z,2.33
2018-05-12T11:06:31.920Z,2.43
2018-05-12T11:08:59.481Z,2.00
2018-05-12T11:11:27.045Z,2.73
2018-05-12T11:13:54.713Z,2.50
2018-05-12T11:16:22.281Z,2.20
2018-05-12T11:18:49.871Z,2.90
2018-05-12T11:21:17.510Z,2.10
2018-05-12T11:23:45.128Z,2.50
2018-05-12T11:26:12.703Z,1.97
2018-05-12T11:28:40.265Z,1.87
2018-05-12T11:31:07.825Z,2.30
2018-05-12T11:33:35.412Z,2.53
2018-05-12T11:36:02.959Z,2.30
2018-05-12T11:38:30.548Z,3.33
2018-05-12T11:40:58.112Z,2.13
2018-05-12T11:43:25.675Z,2.40
2018-05-12T11:45:53.271Z,1.90
2018-05-12T11:48:20.847Z,1.90
2018-05-12T11:50:48.413Z,1.87
2018-05-12T11:53:15.996Z,1.80
2018-05-12T11:55:43.576Z,1.80
2018-05-12T11:58:11.145Z,1.70
2018-05-12T12:00:38.757Z,1.80
2018-05-12T12:03:06.398Z,2.40
2018-05-12T12:05:33.948Z,1.80
2018-05-12T12:08:01.509Z,1.80
2018-05-12T12:10:29.082Z,2.00
2018-05-12T12:12:56.699Z,1.50
2018-05-12T12:15:24.347Z,2.70
2018-05-12T12:17:51.989Z,1.90
2018-05-12T12:20:19.656Z,2.13
2018-05-12T12:22:47.217Z,1.93
2018-05-12T12:25:14.778Z,1.93
2018-05-12T12:27:42.367Z,1.70
2018-05-12T12:30:09.963Z,1.90
2018-05-12T12:32:37.569Z,2.10
2018-05-12T12:35:05.127Z,1.67
2018-05-12T12:37:32.763Z,1.80
2018-05-12T12:40:00.322Z,3.30
2018-05-12T12:42:27.899Z,2.20
2018-05-12T12:44:55.500Z,2.27
2018-05-12T12:47:23.054Z,1.80
2018-05-12T12:49:50.692Z,1.40
2018-05-12T12:52:18.252Z,1.90
2018-05-12T12:54:45.848Z,2.00
2018-05-12T12:57:13.416Z,1.73
2018-05-12T12:59:40.990Z,2.00
2018-05-12T13:02:08.638Z,1.53
2018-05-12T13:04:36.210Z,1.50
2018-05-12T13:07:03.770Z,1.97
2018-05-12T13:09:31.355Z,1.90
2018-05-12T13:11:58.935Z,1.60
2018-05-12T13:14:26.518Z,2.97
2018-05-12T13:16:54.084Z,1.83
2018-05-12T13:19:21.724Z,1.83
2018-05-12T13:21:49.261Z,3.00
2018-05-12T13:24:16.825Z,2.20
2018-05-12T13:26:44.397Z,1.90
2018-05-12T13:29:11.957Z,2.63
2018-05-12T13:31:39.590Z,1.80
2018-05-12T13:34:07.153Z,2.23
2018-05-12T13:36:34.728Z,2.40
2018-05-12T13:39:02.297Z,2.17
2018-05-12T13:41:29.856Z,2.10
2018-05-12T13:43:57.418Z,2.70
2018-05-12T13:46:24.987Z,1.90
2018-05-12T13:48:52.609Z,1.97
2018-05-12T13:51:20.176Z,2.20
2018-05-12T13:53:47.735Z,2.27
2018-05-12T13:56:15.303Z,2.43
2018-05-12T13:58:42.894Z,2.80
2018-05-12T14:01:10.456Z,2.67
2018-05-12T14:03:38.019Z,2.60
2018-05-12T14:06:05.636Z,2.43
2018-05-12T14:08:33.187Z,2.80
2018-05-12T14:11:00.768Z,2.80
2018-05-12T14:13:28.361Z,2.23
2018-05-12T14:15:55.947Z,2.43
2018-05-12T14:18:23.583Z,2.43
2018-05-12T14:20:51.145Z,3.40
2018-05-12T14:23:18.700Z,3.10
2018-05-12T14:25:46.300Z,2.97
2018-05-12T14:28:13.884Z,3.07
2018-05-12T14:30:41.529Z,3.07
2018-05-12T14:33:09.116Z,2.80
2018-05-12T14:35:36.687Z,3.27
2018-05-12T14:38:04.272Z,3.30
2018-05-12T14:40:31.824Z,2.57
2018-05-12T14:42:59.408Z,2.57
2018-05-12T14:45:26.985Z,2.87
2018-05-12T14:47:54.651Z,2.90
2018-05-12T14:50:22.231Z,3.07
2018-05-12T14:52:49.789Z,2.23
2018-05-12T14:55:17.355Z,2.97
2018-05-12T14:57:44.942Z,2.23
2018-05-12T15:00:12.536Z,2.30
2018-05-12T15:02:40.104Z,2.80
2018-05-12T15:05:07.721Z,3.00
2018-05-12T15:07:35.276Z,2.60
2018-05-12T15:10:02.852Z,2.83
2018-05-12T15:12:30.409Z,2.90
2018-05-12T15:14:58.056Z,3.50
2018-05-12T15:17:25.585Z,4.20
2018-05-12T15:19:53.168Z,3.00
2018-05-12T15:22:20.786Z,3.47
2018-05-12T15:24:48.346Z,2.27
2018-05-12T15:27:15.890Z,3.07
2018-05-12T15:29:43.480Z,2.90
2018-05-12T15:32:11.031Z,2.63
2018-05-12T15:34:38.612Z,2.67
2018-05-12T15:37:06.164Z,3.47
2018-05-12T15:39:33.781Z,2.90
2018-05-12T15:42:01.345Z,3.20
2018-05-12T15:44:28.905Z,2.53
2018-05-12T15:46:56.476Z,3.60
2018-05-12T15:49:24.028Z,2.87
2018-05-12T15:51:51.583Z,2.70
2018-05-12T15:54:19.140Z,3.07
2018-05-12T15:56:46.774Z,2.63
2018-05-12T15:59:14.390Z,2.33
2018-05-12T16:01:41.957Z,2.90
2018-05-12T16:04:09.539Z,3.00
2018-05-12T16:06:37.083Z,2.60
2018-05-12T16:09:04.738Z,2.50
2018-05-12T16:11:32.288Z,2.63
2018-05-12T16:13:59.891Z,2.40
2018-05-12T16:16:27.471Z,2.20
2018-05-12T16:18:55.024Z,2.37
2018-05-12T16:21:22.627Z,2.50
2018-05-12T16:23:50.189Z,2.67
2018-05-12T16:26:17.798Z,2.57
2018-05-12T16:28:45.367Z,2.43
2018-05-12T16:31:12.945Z,2.80
2018-05-12T16:33:40.529Z,3.30
2018-05-12T16:36:08.107Z,2.80
2018-05-12T16:38:35.668Z,3.03
2018-05-12T16:41:03.216Z,2.63
2018-05-12T16:43:30.805Z,2.73
2018-05-12T16:45:58.375Z,2.77
2018-05-12T16:48:25.923Z,2.60
2018-05-12T16:50:53.561Z,2.67
2018-05-12T16:53:21.147Z,2.70
2018-05-12T16:55:48.717Z,2.83
2018-05-12T16:58:16.266Z,2.97
2018-05-12T17:00:43.833Z,2.63
2018-05-12T17:03:11.383Z,2.63
2018-05-12T17:05:39.013Z,3.03
2018-05-12T17:08:06.558Z,3.30
2018-05-12T17:10:34.139Z,2.73
2018-05-12T17:13:01.696Z,3.30
2018-05-12T17:15:29.289Z,3.50
2018-05-12T17:17:56.871Z,4.13
2018-05-12T17:20:24.485Z,4.27
2018-05-12T17:22:52.071Z,4.90
2018-05-12T17:25:19.639Z,5.27
2018-05-12T17:27:47.306Z,4.50
2018-05-12T17:30:14.824Z,4.70
2018-05-12T17:32:42.394Z,5.50
2018-05-12T17:35:10.034Z,4.40
2018-05-12T17:37:37.660Z,4.60
2018-05-12T17:40:05.212Z,3.90
2018-05-12T17:42:32.791Z,4.10
2018-05-12T17:45:00.353Z,3.83
2018-05-12T17:47:27.908Z,2.80
2018-05-12T17:49:55.503Z,3.43
2018-05-12T17:52:23.087Z,3.00
2018-05-12T17:54:50.727Z,3.53
2018-05-12T17:57:18.377Z,3.10
2018-05-12T17:59:45.936Z,3.63
2018-05-12T18:02:13.552Z,2.93
2018-05-12T18:04:41.112Z,3.37
2018-05-12T18:07:08.672Z,2.60
2018-05-12T18:09:36.266Z,2.17
2018-05-12T18:12:03.949Z,3.47
2018-05-12T18:14:31.486Z,2.97
2018-05-12T18:16:59.041Z,2.83
2018-05-12T18:19:26.626Z,3.17
2018-05-12T18:21:54.195Z,2.00
2018-05-12T18:24:21.765Z,2.53
2018-05-12T18:26:49.402Z,2.70
2018-05-12T18:29:17.000Z,2.80
2018-05-12T18:31:44.664Z,2.40
2018-05-12T18:34:12.183Z,2.40
2018-05-12T18:36:39.753Z,2.60
2018-05-12T18:39:07.309Z,3.37
2018-05-12T18:41:34.907Z,2.90
2018-05-12T18:44:02.466Z,3.03
2018-05-12T18:46:30.020Z,3.10
2018-05-12T18:48:57.611Z,2.97
2018-05-12T18:51:25.159Z,3.17
2018-05-12T18:53:52.726Z,2.97
2018-05-12T18:56:20.280Z,3.33
2018-05-12T18:58:47.891Z,2.80
2018-05-12T19:01:15.467Z,3.13
2018-05-12T19:03:43.010Z,3.07
2018-05-12T19:06:10.593Z,3.50
2018-05-12T19:08:38.134Z,4.07
2018-05-12T19:11:05.711Z,2.53
2018-05-12T19:13:33.279Z,3.13
2018-05-12T19:16:00.865Z,3.00
2018-05-12T19:18:28.459Z,3.40
2018-05-12T19:20:56.019Z,3.40
2018-05-12T19:23:23.653Z,3.13
2018-05-12T19:25:51.212Z,5.97
2018-05-12T19:28:18.808Z,3.30
2018-05-12T19:30:46.397Z,2.83
2018-05-12T19:33:13.957Z,2.97
2018-05-12T19:35:41.546Z,3.50
2018-05-12T19:38:09.128Z,4.30
2018-05-12T19:40:36.764Z,3.53
2018-05-12T19:43:04.348Z,3.70
2018-05-12T19:45:31.974Z,2.87
2018-05-12T19:47:59.532Z,3.30
2018-05-12T19:50:27.093Z,3.30
2018-05-12T19:52:54.666Z,3.03
2018-05-12T19:55:22.257Z,2.90
2018-05-12T19:57:49.828Z,3.50
2018-05-12T20:00:17.386Z,3.17
2018-05-12T20:02:45.025Z,3.40
2018-05-12T20:05:12.612Z,3.63
2018-05-12T20:07:40.284Z,3.53
2018-05-12T20:10:07.878Z,5.37
2018-05-12T20:12:35.457Z,4.17
2018-05-12T20:15:03.016Z,4.07
2018-05-12T20:17:30.568Z,3.47
2018-05-12T20:19:58.189Z,3.80
2018-05-12T20:22:25.739Z,3.70
2018-05-12T20:24:53.317Z,3.50
2018-05-12T20:27:20.903Z,3.10
2018-05-12T20:29:48.505Z,2.90
2018-05-12T20:32:16.087Z,2.70
2018-05-12T20:34:43.658Z,2.70
2018-05-12T20:37:11.323Z,2.80
2018-05-12T20:39:38.860Z,2.80
2018-05-12T20:42:06.424Z,2.50
2018-05-12T20:44:33.983Z,2.67
2018-05-12T20:47:01.573Z,2.47
2018-05-12T20:49:29.187Z,2.83
2018-05-12T20:51:56.844Z,2.80
2018-05-12T20:54:24.408Z,2.80
2018-05-12T20:56:52.020Z,2.33
2018-05-12T20:59:19.576Z,3.10
2018-05-12T21:01:47.198Z,2.87
2018-05-12T21:04:14.817Z,2.83
2018-05-12T21:06:42.433Z,2.43
2018-05-12T21:09:10.062Z,3.77
2018-05-12T21:11:37.844Z,2.90
2018-05-12T21:14:05.408Z,3.03
2018-05-12T21:16:33.075Z,3.50
2018-05-12T21:19:00.709Z,2.70
2018-05-12T21:21:28.765Z,3.20
2018-05-12T21:23:56.335Z,2.60
2018-05-12T21:26:24.021Z,2.40
2018-05-12T21:28:51.619Z,3.90
2018-05-12T21:31:19.185Z,3.43
2018-05-12T21:33:46.735Z,3.30
2018-05-12T21:36:14.364Z,2.70
2018-05-12T21:38:41.940Z,3.47
2018-05-12T21:41:09.542Z,2.87
2018-05-12T21:43:37.164Z,2.60
2018-05-12T21:46:04.735Z,3.50
2018-05-12T21:48:32.389Z,2.60
2018-05-12T21:51:00.016Z,2.93
2018-05-12T21:53:27.709Z,2.93
2018-05-12T21:55:55.269Z,3.33
2018-05-12T21:58:22.868Z,3.53
2018-05-12T22:00:50.429Z,2.93
2018-05-12T22:03:18.069Z,3.30
2018-05-12T22:05:45.590Z,3.33
2018-05-12T22:08:13.145Z,3.10
2018-05-12T22:10:40.858Z,3.20
2018-05-12T22:13:08.485Z,3.83
2018-05-12T22:15:36.041Z,3.30
2018-05-12T22:18:03.744Z,3.77
2018-05-12T22:20:31.306Z,3.80
2018-05-12T22:22:58.940Z,4.20
2018-05-12T22:25:26.510Z,3.00
2018-05-12T22:27:54.116Z,3.50
2018-05-12T22:30:21.701Z,3.60
2018-05-12T22:32:49.329Z,3.80
2018-05-12T22:35:16.967Z,3.70
2018-05-12T22:37:44.581Z,3.23
2018-05-12T22:40:12.248Z,2.93
2018-05-12T22:42:39.805Z,3.07
2018-05-12T22:45:07.481Z,2.87
2018-05-12T22:47:35.036Z,3.00
2018-05-12T22:50:02.661Z,2.70
2018-05-12T22:52:30.230Z,3.03
2018-05-12T22:54:57.868Z,3.27
2018-05-12T22:57:25.499Z,2.77
2018-05-12T22:59:53.127Z,3.97
2018-05-12T23:02:20.761Z,3.47
2018-05-12T23:04:48.312Z,4.20
2018-05-12T23:07:15.889Z,3.67
2018-05-12T23:09:43.512Z,3.73
2018-05-12T23:12:11.062Z,4.30
2018-05-12T23:14:38.676Z,3.40
2018-05-12T23:17:06.237Z,3.40
2018-05-12T23:19:33.847Z,4.00
2018-05-12T23:22:01.406Z,3.30
2018-05-12T23:24:28.971Z,3.50
2018-05-12T23:26:56.542Z,3.50
2018-05-12T23:29:24.096Z,3.67
2018-05-12T23:31:51.852Z,3.30
2018-05-12T23:34:19.349Z,3.40
2018-05-12T23:36:46.897Z,3.30
2018-05-12T23:39:14.461Z,3.33
2018-05-12T23:41:42.068Z,4.60
2018-05-12T23:44:09.633Z,3.70
2018-05-12T23:46:37.188Z,3.13
2018-05-12T23:49:04.796Z,3.20
2018-05-12T23:51:32.433Z,3.33
2018-05-12T23:53:59.996Z,4.33
2018-05-12T23:56:27.637Z,3.13
2018-05-12T23:58:55.201Z,3.30
